Time;durP1;ratioP1;P1;durP2;ratioP2;P2;SDS_P1;SDS_P2;PMS_P1;PMS_P2;Temp;Humidity;BMP_temperature;BMP_pressure;BME280_temperature;BME280_humidity;BME280_pressure;Samples;Min_cycle;Max_cycle;Signal;HPM_P1;HPM_P2
2022/09/03 00:02:37;;;;;;;3.63;1.50;;;20.00;99.90;;;;;;5078137;28;36951;-78
2022/09/03 00:05:06;;;;;;;4.97;1.70;;;20.00;99.90;;;;;;5080077;28;39602;-78
2022/09/03 00:07:48;;;;;;;2.13;1.33;;;20.10;99.90;;;;;;5066169;28;47092;-77
2022/09/03 00:10:21;;;;;;;3.13;1.58;;;20.00;99.90;;;;;;5050199;28;37871;-77
2022/09/03 00:12:51;;;;;;;5.47;1.50;;;20.10;99.90;;;;;;5052529;28;37648;-78
2022/09/03 00:15:21;;;;;;;1.95;1.27;;;20.10;99.90;;;;;;5051694;28;38808;-77
2022/09/03 00:18:09;;;;;;;2.97;1.40;;;20.10;99.90;;;;;;5053831;28;38532;-77
2022/09/03 00:20:43;;;;;;;4.53;1.90;;;20.10;99.90;;;;;;5039253;28;47309;-77
2022/09/03 00:23:17;;;;;;;4.07;1.48;;;20.00;99.90;;;;;;5032948;28;39876;-78
2022/09/03 00:25:55;;;;;;;5.20;1.30;;;20.10;99.90;;;;;;5044725;28;38606;-78
2022/09/03 00:28:51;;;;;;;2.55;1.60;;;20.10;99.90;;;;;;5033781;28;40133;-77
2022/09/03 00:31:31;;;;;;;3.05;1.40;;;20.10;99.90;;;;;;5053515;28;38131;-78
2022/09/03 00:34:03;;;;;;;5.30;1.60;;;20.10;99.90;;;;;;5053450;28;36957;-77
2022/09/03 00:36:36;;;;;;;;;;;20.10;99.90;;;;;;5033998;28;47248;-77
2022/09/03 00:39:02;;;;;;;1.92;0.90;;;20.10;99.90;;;;;;5036102;28;40693;-77
2022/09/03 00:41:39;;;;;;;2.47;1.30;;;20.10;99.90;;;;;;5035572;28;36905;-77
2022/09/03 00:44:10;;;;;;;4.80;1.23;;;20.20;99.90;;;;;;5039849;28;38189;-78
2022/09/03 00:47:01;;;;;;;3.65;1.58;;;20.10;99.90;;;;;;5032509;28;39464;-78
2022/09/03 00:50:06;;;;;;;3.88;1.27;;;20.10;99.90;;;;;;5053277;28;48776;-78
2022/09/03 00:52:46;;;;;;;4.72;1.55;;;20.10;99.90;;;;;;5072524;28;49484;-77
2022/09/03 00:55:28;;;;;;;2.22;1.40;;;20.10;99.90;;;;;;5056689;28;38260;-78
2022/09/03 00:58:09;;;;;;;1.88;1.30;;;20.10;99.90;;;;;;5071283;28;38026;-78
2022/09/03 01:00:41;;;;;;;6.63;1.92;;;20.10;99.90;;;;;;5067829;28;47610;-78
2022/09/03 01:03:18;;;;;;;4.13;1.50;;;20.10;99.90;;;;;;5081227;28;38948;-78
2022/09/03 01:05:58;;;;;;;2.13;1.52;;;20.10;99.90;;;;;;5050938;28;37973;-77
2022/09/03 01:08:43;;;;;;;2.60;1.50;;;20.10;99.90;;;;;;5081541;28;37648;-77
2022/09/03 01:11:40;;;;;;;2.20;1.80;;;20.10;99.90;;;;;;5056091;28;39017;-77
2022/09/03 01:14:27;;;;;;;4.57;1.60;;;20.00;99.90;;;;;;5075256;28;37865;-77
2022/09/03 01:17:05;;;;;;;3.40;1.55;;;20.00;99.90;;;;;;5066242;28;36904;-78
2022/09/03 01:19:47;;;;;;;3.35;1.60;;;19.90;99.90;;;;;;5042950;28;47173;-77
2022/09/03 01:22:32;;;;;;;6.25;1.60;;;19.90;99.90;;;;;;5065966;28;40186;-78
2022/09/03 01:25:30;;;;;;;3.55;1.40;;;19.90;99.90;;;;;;5047899;28;38314;-78
2022/09/03 01:28:00;;;;;;;3.03;1.83;;;19.90;99.90;;;;;;5072197;28;49085;-78
2022/09/03 01:30:30;;;;;;;2.70;1.40;;;19.90;99.90;;;;;;5077251;28;47552;-77
2022/09/03 01:33:08;;;;;;;3.15;1.48;;;19.80;99.90;;;;;;5054869;28;37933;-75
2022/09/03 01:35:47;;;;;;;6.00;2.10;;;19.80;99.90;;;;;;5057749;28;47170;-76
2022/09/03 01:38:19;;;;;;;4.65;1.75;;;19.80;99.90;;;;;;5056829;28;36115;-76
2022/09/03 01:44:26;;;;;;;2.60;1.42;;;19.80;99.90;;;;;;5079668;28;48951;-77
2022/09/03 01:47:07;;;;;;;6.00;1.80;;;19.80;99.90;;;;;;5076107;28;39523;-78
2022/09/03 01:49:39;;;;;;;2.88;1.27;;;19.70;99.90;;;;;;5050688;28;47124;-77
2022/09/03 01:52:28;;;;;;;5.20;1.80;;;19.70;99.90;;;;;;5041040;28;39264;-77
2022/09/03 01:55:25;;;;;;;3.65;1.75;;;19.70;99.90;;;;;;5046620;28;38369;-77
2022/09/03 01:58:26;;;;;;;3.35;1.50;;;19.60;99.90;;;;;;5030507;28;46994;-77
2022/09/03 02:01:00;;;;;;;5.43;2.15;;;19.50;99.90;;;;;;5047044;28;48997;-76
2022/09/03 02:03:36;;;;;;;2.67;1.55;;;19.40;99.90;;;;;;5050654;28;40296;-77
2022/09/03 02:06:02;;;;;;;2.45;1.50;;;19.40;99.90;;;;;;5055302;28;38947;-77
2022/09/03 02:08:30;;;;;;;2.42;1.35;;;19.40;99.90;;;;;;5052299;28;38401;-77
2022/09/03 02:11:00;;;;;;;3.28;1.60;;;19.40;99.90;;;;;;5069704;28;36163;-76
2022/09/03 02:13:43;;;;;;;3.45;1.40;;;19.30;99.90;;;;;;5080784;28;47086;-76
2022/09/03 02:16:23;;;;;;;6.68;1.60;;;19.20;99.90;;;;;;5056208;28;38255;-77
2022/09/03 02:18:56;;;;;;;2.55;1.77;;;19.20;99.90;;;;;;5063810;28;38685;-76
2022/09/03 02:21:25;;;;;;;3.33;1.48;;;19.20;99.90;;;;;;5051369;28;38980;-76
2022/09/03 02:23:52;;;;;;;4.45;1.50;;;19.20;99.90;;;;;;5076760;28;38871;-76
2022/09/03 02:26:21;;;;;;;3.10;1.50;;;19.10;99.90;;;;;;5062238;28;39163;-77
2022/09/03 02:28:48;;;;;;;2.85;1.10;;;19.00;99.90;;;;;;5087737;28;39224;-77
2022/09/03 02:31:14;;;;;;;3.63;1.60;;;18.90;99.90;;;;;;5071177;28;37260;-77
2022/09/03 02:33:44;;;;;;;2.80;1.73;;;18.80;99.90;;;;;;5076313;28;38963;-77
2022/09/03 02:36:13;;;;;;;2.85;1.40;;;18.80;99.90;;;;;;5070203;28;38410;-76
2022/09/03 02:38:44;;;;;;;2.75;1.40;;;18.70;99.90;;;;;;5060758;28;39364;-77
2022/09/03 02:41:12;;;;;;;4.13;1.80;;;18.60;99.90;;;;;;5063318;28;39145;-77
2022/09/03 02:43:48;;;;;;;7.35;1.83;;;18.60;99.90;;;;;;5058398;28;40576;-77
2022/09/03 02:46:23;;;;;;;5.07;1.70;;;18.50;99.90;;;;;;5071612;28;39917;-77
2022/09/03 02:48:49;;;;;;;4.07;1.52;;;18.40;99.90;;;;;;5055505;28;38878;-76
2022/09/03 02:51:15;;;;;;;6.05;1.85;;;18.40;99.90;;;;;;5053354;28;38626;-77
2022/09/03 02:53:42;;;;;;;6.65;1.92;;;18.30;99.90;;;;;;5071079;28;37596;-76
2022/09/03 02:56:08;;;;;;;5.43;2.03;;;18.30;99.90;;;;;;5072553;28;38635;-76
2022/09/03 02:58:34;;;;;;;3.08;1.70;;;18.20;99.90;;;;;;5055743;28;37014;-76
2022/09/03 03:01:00;;;;;;;3.65;1.52;;;18.10;99.90;;;;;;5072244;28;36105;-76
2022/09/03 03:03:26;;;;;;;6.95;1.60;;;18.10;99.90;;;;;;5057134;28;37711;-77
2022/09/03 03:05:56;;;;;;;2.60;1.55;;;18.00;99.90;;;;;;5054539;28;38633;-76
2022/09/03 03:08:24;;;;;;;2.45;1.60;;;18.00;99.90;;;;;;5048834;28;37017;-76
2022/09/03 03:10:52;;;;;;;5.03;1.58;;;18.00;99.90;;;;;;5074938;28;37331;-78
2022/09/03 03:13:19;;;;;;;2.47;1.50;;;17.90;99.90;;;;;;5064780;28;38866;-77
2022/09/03 03:15:46;;;;;;;3.00;1.35;;;17.80;99.90;;;;;;5055208;28;38751;-77
2022/09/03 03:18:12;;;;;;;2.20;1.50;;;17.70;99.90;;;;;;5073167;28;38547;-77
2022/09/03 03:20:40;;;;;;;3.50;1.80;;;17.70;99.90;;;;;;5052109;28;38871;-78
2022/09/03 03:23:07;;;;;;;2.85;1.65;;;17.70;99.90;;;;;;5053586;28;39834;-77
2022/09/03 03:25:35;;;;;;;2.92;1.63;;;17.70;99.90;;;;;;5074394;28;38825;-77
2022/09/03 03:28:03;;;;;;;2.80;1.70;;;17.60;99.90;;;;;;5063095;28;39770;-77
2022/09/03 03:30:30;;;;;;;3.67;1.75;;;17.60;99.90;;;;;;5069605;28;37551;-77
2022/09/03 03:32:56;;;;;;;3.53;1.92;;;17.50;99.90;;;;;;5059683;28;37806;-77
2022/09/03 03:35:23;;;;;;;6.03;2.17;;;17.40;99.90;;;;;;5065839;28;39535;-77
2022/09/03 03:37:49;;;;;;;4.22;1.73;;;17.50;99.90;;;;;;5049809;28;38716;-77
2022/09/03 03:40:16;;;;;;;3.63;1.85;;;17.40;99.90;;;;;;5053348;28;38807;-77
2022/09/03 03:42:42;;;;;;;4.47;1.98;;;17.30;99.90;;;;;;5063025;28;39647;-78
2022/09/03 03:45:09;;;;;;;2.63;1.65;;;17.30;99.90;;;;;;5067830;28;38465;-78
2022/09/03 03:47:36;;;;;;;3.42;1.77;;;17.20;99.90;;;;;;5072074;28;37591;-77
2022/09/03 03:50:03;;;;;;;2.38;1.63;;;17.20;99.90;;;;;;5053624;28;38697;-77
2022/09/03 03:52:30;;;;;;;3.33;2.08;;;17.10;99.90;;;;;;5047778;28;40900;-77
2022/09/03 03:54:56;;;;;;;5.85;1.95;;;17.10;99.90;;;;;;5072060;28;38425;-77
2022/09/03 03:57:22;;;;;;;8.63;1.75;;;17.10;99.90;;;;;;5049123;28;36857;-77
2022/09/03 03:59:49;;;;;;;3.22;2.00;;;17.00;99.90;;;;;;5066476;28;36655;-78
2022/09/03 04:02:16;;;;;;;2.50;1.80;;;17.00;99.90;;;;;;5056493;28;40352;-77
2022/09/03 04:04:42;;;;;;;5.03;2.10;;;16.90;99.90;;;;;;5066572;28;39858;-77
2022/09/03 04:07:09;;;;;;;4.80;1.80;;;16.90;99.90;;;;;;5051807;28;38506;-77
2022/09/03 04:09:36;;;;;;;3.22;2.30;;;16.90;99.90;;;;;;5056448;28;38190;-77
2022/09/03 04:12:04;;;;;;;3.80;2.17;;;16.80;99.90;;;;;;5065677;28;39570;-78
2022/09/03 04:14:30;;;;;;;6.20;2.40;;;16.80;99.90;;;;;;5067621;28;38158;-78
2022/09/03 04:16:56;;;;;;;5.55;2.22;;;16.70;99.90;;;;;;5052324;28;38976;-78
2022/09/03 04:19:23;;;;;;;4.43;1.90;;;16.70;99.90;;;;;;5064720;28;38029;-77
2022/09/03 04:21:49;;;;;;;3.63;2.22;;;16.70;99.90;;;;;;5055387;28;39314;-78
2022/09/03 04:24:15;;;;;;;4.38;2.17;;;16.70;99.90;;;;;;5075303;28;38123;-77
2022/09/03 04:26:41;;;;;;;5.78;2.67;;;16.70;99.90;;;;;;5078499;28;39155;-78
2022/09/03 04:29:09;;;;;;;6.47;2.30;;;16.70;99.90;;;;;;5054549;28;38021;-79
2022/09/03 04:31:36;;;;;;;4.15;2.30;;;16.60;99.90;;;;;;5072568;28;38943;-78
2022/09/03 04:34:05;;;;;;;4.15;2.20;;;16.60;99.90;;;;;;5053343;28;39584;-79
2022/09/03 04:36:33;;;;;;;5.47;2.13;;;16.60;99.90;;;;;;5073931;28;38788;-79
2022/09/03 04:39:03;;;;;;;3.88;2.33;;;16.50;99.90;;;;;;5073898;28;37301;-79
2022/09/03 04:41:30;;;;;;;4.85;2.47;;;16.50;99.90;;;;;;5068360;28;47118;-79
2022/09/03 04:43:58;;;;;;;3.53;2.22;;;16.50;99.90;;;;;;5069847;28;38598;-78
2022/09/03 04:46:26;;;;;;;4.97;2.22;;;16.50;99.90;;;;;;5052707;28;36973;-79
2022/09/03 04:48:54;;;;;;;5.13;2.30;;;16.40;99.90;;;;;;5057369;28;38370;-79
2022/09/03 04:51:22;;;;;;;5.22;2.83;;;16.40;99.90;;;;;;5076222;28;39015;-78
2022/09/03 04:53:56;;;;;;;4.90;2.50;;;16.40;99.90;;;;;;5057574;28;38005;-79
2022/09/03 04:56:25;;;;;;;5.13;2.22;;;16.40;99.90;;;;;;5062114;28;38466;-78
2022/09/03 04:58:56;;;;;;;4.80;2.53;;;16.40;99.90;;;;;;5076058;28;37127;-78
2022/09/03 05:01:25;;;;;;;3.47;1.98;;;16.40;99.90;;;;;;5056238;28;39725;-79
2022/09/03 05:03:51;;;;;;;5.90;2.15;;;16.30;99.90;;;;;;5059187;28;39391;-78
2022/09/03 05:06:17;;;;;;;3.83;2.28;;;16.30;99.90;;;;;;5050192;28;38852;-79
2022/09/03 05:08:47;;;;;;;6.78;2.67;;;16.30;99.90;;;;;;5060643;28;35625;-78
2022/09/03 05:11:14;;;;;;;4.25;2.17;;;16.20;99.90;;;;;;5079252;28;38833;-79
2022/09/03 05:13:40;;;;;;;3.83;1.98;;;16.20;99.90;;;;;;5074685;28;39888;-79
2022/09/03 05:16:09;;;;;;;3.10;2.10;;;16.20;99.90;;;;;;5056918;28;39869;-79
2022/09/03 05:18:36;;;;;;;4.63;2.05;;;16.20;99.90;;;;;;5055252;28;37526;-79
2022/09/03 05:21:05;;;;;;;3.97;2.17;;;16.10;99.90;;;;;;5072953;28;38585;-78
2022/09/03 05:23:35;;;;;;;6.43;2.67;;;16.10;99.90;;;;;;5056436;28;40155;-78
2022/09/03 05:26:03;;;;;;;3.58;2.28;;;16.10;99.90;;;;;;5072482;28;37892;-78
2022/09/03 05:28:30;;;;;;;4.25;2.50;;;16.10;99.90;;;;;;5054671;28;46898;-79
2022/09/03 05:31:00;;;;;;;6.40;2.58;;;16.10;99.90;;;;;;5050425;28;37692;-79
2022/09/03 05:33:26;;;;;;;7.43;2.40;;;16.10;99.90;;;;;;5049500;28;38974;-79
2022/09/03 05:35:59;;;;;;;9.38;2.72;;;16.10;99.90;;;;;;5051149;28;36772;-78
2022/09/03 05:38:25;;;;;;;;;;;16.10;99.90;;;;;;5049462;28;36959;-79
2022/09/03 05:40:51;;;;;;;7.30;2.53;;;16.10;99.90;;;;;;5053472;28;40787;-79
2022/09/03 05:43:17;;;;;;;5.22;2.05;;;16.10;99.90;;;;;;5044669;28;37523;-78
2022/09/03 05:45:43;;;;;;;4.38;2.70;;;16.10;99.90;;;;;;5053828;28;38972;-78
2022/09/03 05:48:09;;;;;;;7.63;2.33;;;16.10;99.90;;;;;;5052893;28;37994;-79
2022/09/03 05:50:35;;;;;;;4.75;2.40;;;16.10;99.90;;;;;;5050575;28;37626;-79
2022/09/03 05:53:02;;;;;;;5.55;2.53;;;16.10;99.90;;;;;;5056384;28;38947;-79
2022/09/03 05:55:28;;;;;;;4.75;2.17;;;16.10;99.90;;;;;;5047888;28;39102;-78
2022/09/03 05:57:54;;;;;;;4.18;2.30;;;16.10;99.90;;;;;;5051985;28;37698;-79
2022/09/03 06:00:21;;;;;;;6.93;2.75;;;16.20;99.90;;;;;;5049962;28;39603;-79
2022/09/03 06:02:51;;;;;;;3.78;2.08;;;16.20;99.90;;;;;;5050215;28;38173;-78
2022/09/03 06:05:17;;;;;;;4.60;2.25;;;16.20;99.90;;;;;;5047539;28;37072;-79
2022/09/03 06:07:47;;;;;;;6.78;2.20;;;16.20;99.90;;;;;;5055565;28;39178;-79
2022/09/03 06:10:15;;;;;;;8.38;2.70;;;16.30;99.90;;;;;;5045601;28;39002;-78
2022/09/03 06:12:43;;;;;;;5.13;2.40;;;16.30;99.90;;;;;;5046961;28;37320;-79
2022/09/03 06:15:10;;;;;;;3.95;2.17;;;16.40;99.90;;;;;;5052517;28;36984;-79
2022/09/03 06:17:37;;;;;;;4.10;2.30;;;16.40;99.90;;;;;;5055079;28;37266;-79
2022/09/03 06:20:04;;;;;;;6.97;2.40;;;16.40;99.90;;;;;;5051408;28;40585;-79
2022/09/03 06:22:30;;;;;;;4.50;2.25;;;16.40;99.90;;;;;;5050955;28;47585;-80
2022/09/03 06:24:56;;;;;;;3.67;2.30;;;16.50;99.90;;;;;;5059018;28;37546;-79
2022/09/03 06:27:23;;;;;;;3.42;2.00;;;16.50;99.90;;;;;;5063815;28;20117;-79
2022/09/03 06:29:49;;;;;;;5.00;2.40;;;16.50;99.90;;;;;;5064904;28;37901;-80
2022/09/03 06:32:15;;;;;;;3.35;1.90;;;16.60;99.90;;;;;;5055674;28;38343;-79
2022/09/03 06:34:41;;;;;;;3.58;2.38;;;16.70;99.90;;;;;;5056107;28;38477;-80
2022/09/03 06:37:07;;;;;;;6.28;2.45;;;16.70;99.90;;;;;;5051785;28;36123;-79
2022/09/03 06:39:33;;;;;;;12.80;2.60;;;16.70;99.90;;;;;;5057980;28;38921;-79
2022/09/03 06:42:00;;;;;;;5.65;2.75;;;16.80;99.90;;;;;;5061314;28;36939;-80
2022/09/03 06:44:26;;;;;;;4.82;2.53;;;16.90;99.90;;;;;;5052532;28;37120;-79
2022/09/03 06:46:52;;;;;;;4.13;2.35;;;17.00;99.90;;;;;;5063636;28;37935;-79
2022/09/03 06:49:19;;;;;;;7.15;2.65;;;17.10;99.90;;;;;;5060739;28;39525;-79
2022/09/03 06:51:45;;;;;;;7.10;2.30;;;17.10;99.90;;;;;;5055280;28;37370;-79
2022/09/03 06:54:12;;;;;;;4.57;2.47;;;17.20;99.90;;;;;;5046141;28;37529;-77
2022/09/03 06:56:39;;;;;;;7.90;2.15;;;17.20;99.90;;;;;;5048737;28;37150;-77
2022/09/03 06:59:08;;;;;;;7.38;2.60;;;17.30;99.90;;;;;;5051996;28;39062;-77
2022/09/03 07:01:36;;;;;;;8.55;2.60;;;17.30;99.90;;;;;;5052154;28;39168;-77
2022/09/03 07:04:04;;;;;;;3.83;2.20;;;17.40;99.90;;;;;;5060337;28;39597;-77
2022/09/03 07:06:36;;;;;;;3.85;2.30;;;17.40;99.90;;;;;;5055507;28;37421;-76
2022/09/03 07:09:02;;;;;;;5.60;2.30;;;17.50;99.90;;;;;;5049792;28;38670;-77
2022/09/03 07:11:30;;;;;;;4.50;2.25;;;17.60;99.90;;;;;;5059293;28;38435;-77
2022/09/03 07:13:58;;;;;;;7.30;2.42;;;17.70;99.90;;;;;;5051813;28;38972;-77
2022/09/03 07:16:27;;;;;;;6.00;2.13;;;17.80;99.90;;;;;;5059513;28;37103;-76
2022/09/03 07:18:54;;;;;;;3.85;2.05;;;17.80;99.90;;;;;;5053113;28;38456;-78
2022/09/03 07:21:23;;;;;;;3.53;1.90;;;18.00;99.90;;;;;;5055034;28;39349;-77
2022/09/03 07:23:53;;;;;;;4.70;2.08;;;18.10;99.90;;;;;;5056262;28;36575;-74
2022/09/03 07:26:25;;;;;;;5.43;2.30;;;18.20;99.90;;;;;;5056973;28;36916;-77
2022/09/03 07:28:53;;;;;;;8.60;2.50;;;18.30;99.90;;;;;;5058173;28;38397;-77
2022/09/03 07:31:24;;;;;;;5.78;2.28;;;18.50;99.90;;;;;;5049915;28;38340;-75
2022/09/03 07:33:55;;;;;;;3.83;2.28;;;18.80;99.90;;;;;;5039944;28;38891;-75
2022/09/03 07:36:23;;;;;;;4.25;2.40;;;18.80;99.90;;;;;;5029190;28;38077;-76
2022/09/03 07:38:50;;;;;;;8.05;3.15;;;18.80;99.90;;;;;;5048445;28;40653;-76
2022/09/03 07:41:17;;;;;;;6.75;2.25;;;18.90;99.90;;;;;;5046268;28;38455;-76
2022/09/03 07:43:47;;;;;;;5.65;1.90;;;18.80;99.90;;;;;;5067755;28;37800;-76
2022/09/03 07:46:22;;;;;;;4.28;2.10;;;18.90;99.90;;;;;;5062437;28;37214;-76
2022/09/03 07:48:53;;;;;;;5.70;2.30;;;19.10;99.90;;;;;;5047714;28;40537;-76
2022/09/03 07:51:25;;;;;;;5.88;2.35;;;19.10;99.90;;;;;;5062556;28;39506;-76
2022/09/03 07:53:53;;;;;;;6.30;2.22;;;19.40;99.90;;;;;;5048876;28;38925;-76
2022/09/03 07:56:20;;;;;;;5.15;2.10;;;19.80;99.90;;;;;;5050344;28;37516;-76
2022/09/03 07:58:46;;;;;;;5.18;2.28;;;20.20;99.90;;;;;;5070476;28;39513;-76
2022/09/03 08:01:18;;;;;;;3.10;2.10;;;20.40;99.90;;;;;;5069683;28;39282;-76
2022/09/03 08:03:46;;;;;;;3.37;2.07;;;20.50;99.90;;;;;;5051719;28;40878;-75
2022/09/03 08:06:14;;;;;;;7.80;2.42;;;20.70;99.90;;;;;;5054849;28;37325;-76
2022/09/03 08:08:40;;;;;;;5.40;2.28;;;21.00;99.90;;;;;;5064071;28;38599;-78
2022/09/03 08:11:09;;;;;;;8.40;2.65;;;21.20;99.90;;;;;;5045396;28;37377;-77
2022/09/03 08:13:44;;;;;;;8.15;2.08;;;21.40;99.90;;;;;;5065256;28;38787;-79
2022/09/03 08:16:12;;;;;;;7.10;2.10;;;21.50;99.90;;;;;;5050655;28;38961;-78
2022/09/03 08:18:39;;;;;;;4.13;1.80;;;21.50;99.90;;;;;;5052427;28;39576;-77
2022/09/03 08:21:12;;;;;;;4.25;1.90;;;21.80;99.90;;;;;;5067013;28;38405;-77
2022/09/03 08:23:41;;;;;;;5.75;2.03;;;21.90;99.90;;;;;;5065267;28;37698;-78
2022/09/03 08:26:08;;;;;;;5.05;2.05;;;21.90;99.90;;;;;;5063977;28;37827;-77
2022/09/03 08:28:36;;;;;;;3.30;2.08;;;21.60;99.90;;;;;;5070012;28;39154;-78
2022/09/03 08:31:13;;;;;;;10.27;2.30;;;21.20;99.90;;;;;;5062918;28;38448;-78
2022/09/03 08:33:42;;;;;;;5.63;2.22;;;21.10;99.90;;;;;;5049067;28;37253;-78
2022/09/03 08:36:31;;;;;;;4.70;2.40;;;21.10;99.90;;;;;;5051526;28;35602;-79
2022/09/03 08:39:02;;;;;;;3.05;1.85;;;21.20;99.90;;;;;;5044380;28;38964;-78
2022/09/03 08:41:43;;;;;;;7.18;1.83;;;21.10;99.90;;;;;;5063456;28;47199;-78
2022/09/03 08:44:38;;;;;;;3.40;1.83;;;21.10;99.90;;;;;;5060638;28;38567;-77
2022/09/03 08:47:17;;;;;;;4.82;2.05;;;21.40;99.90;;;;;;5068726;28;36989;-78
2022/09/03 08:50:04;;;;;;;3.63;1.88;;;21.70;99.90;;;;;;5067417;28;39432;-77
2022/09/03 08:52:39;;;;;;;5.72;1.77;;;21.70;99.90;;;;;;5069868;28;46969;-78
2022/09/03 08:55:24;;;;;;;4.18;1.88;;;21.70;99.90;;;;;;5067792;28;38031;-78
2022/09/03 08:57:59;;;;;;;4.68;1.95;;;21.90;99.90;;;;;;5064259;28;37792;-78
2022/09/03 09:00:37;;;;;;;6.18;2.00;;;22.40;99.90;;;;;;5067192;28;37437;-78
2022/09/03 09:03:41;;;;;;;2.63;1.75;;;22.80;99.90;;;;;;5068404;28;38581;-78
2022/09/03 09:06:19;;;;;;;3.05;1.60;;;23.10;99.90;;;;;;5074029;28;38366;-76
2022/09/03 09:09:06;;;;;;;3.65;1.70;;;23.50;99.90;;;;;;5055171;28;35953;-78
2022/09/03 09:11:46;;;;;;;4.63;2.05;;;23.40;99.90;;;;;;5081485;28;47143;-78
2022/09/03 09:14:36;;;;;;;4.38;1.75;;;23.70;99.90;;;;;;5057109;28;37240;-78
2022/09/03 09:17:17;;;;;;;6.25;2.22;;;23.70;99.90;;;;;;5065673;28;37535;-78
2022/09/03 09:20:05;;;;;;;7.53;2.40;;;23.30;99.90;;;;;;5068537;28;38316;-78
2022/09/03 09:22:39;;;;;;;6.20;2.22;;;23.40;99.90;;;;;;5069239;28;48183;-78
2022/09/03 09:25:21;;;;;;;4.82;2.10;;;22.90;99.90;;;;;;5058773;28;38145;-78
2022/09/03 09:27:59;;;;;;;2.55;1.75;;;22.70;99.90;;;;;;5071333;28;39069;-78
2022/09/03 09:30:26;;;;;;;3.72;2.00;;;22.70;99.90;;;;;;5059723;28;37835;-78
2022/09/03 09:32:53;;;;;;;7.15;2.30;;;22.90;99.90;;;;;;5066307;28;40620;-77
2022/09/03 09:35:19;;;;;;;4.70;2.28;;;23.20;99.90;;;;;;5066490;28;38800;-78
2022/09/03 09:37:47;;;;;;;4.25;2.03;;;23.20;99.90;;;;;;5063447;28;37907;-77
2022/09/03 09:40:33;;;;;;;4.88;2.20;;;23.00;99.90;;;;;;5068136;28;37420;-78
2022/09/03 09:43:06;;;;;;;7.00;2.58;;;23.10;99.90;;;;;;5066129;28;40740;-78
2022/09/03 09:45:33;;;;;;;9.15;2.35;;;23.30;99.90;;;;;;5076758;28;47173;-78
2022/09/03 09:48:01;;;;;;;4.53;2.38;;;23.80;99.90;;;;;;5061006;28;36847;-77
2022/09/03 09:50:27;;;;;;;4.45;2.33;;;24.00;99.90;;;;;;5049267;28;47399;-78
2022/09/03 09:53:04;;;;;;;4.25;2.75;;;24.40;99.90;;;;;;5061625;28;40513;-79
2022/09/03 09:55:31;;;;;;;7.78;2.83;;;24.50;99.90;;;;;;5063303;28;48574;-78
2022/09/03 09:58:09;;;;;;;4.55;2.22;;;24.30;99.90;;;;;;5061203;28;39818;-78
2022/09/03 10:00:36;;;;;;;5.68;2.10;;;24.50;99.90;;;;;;5061641;28;47078;-78
2022/09/03 10:03:09;;;;;;;4.90;2.75;;;24.40;99.90;;;;;;5059346;28;39612;-78
2022/09/03 10:05:38;;;;;;;7.93;3.22;;;24.30;99.90;;;;;;5060744;28;39511;-78
2022/09/03 10:08:16;;;;;;;5.10;2.75;;;24.30;99.90;;;;;;5054046;28;39557;-78
2022/09/03 10:10:49;;;;;;;6.30;3.08;;;24.10;99.90;;;;;;5056204;28;39468;-78
2022/09/03 10:13:23;;;;;;;3.50;2.53;;;24.20;99.90;;;;;;5073988;28;39005;-79
2022/09/03 10:16:01;;;;;;;7.45;2.90;;;24.50;99.90;;;;;;5058132;28;39821;-78
2022/09/03 10:18:47;;;;;;;3.15;2.40;;;24.40;99.90;;;;;;5088774;28;48633;-78
2022/09/03 10:21:25;;;;;;;8.90;2.63;;;24.50;99.90;;;;;;5057293;28;35007;-78
2022/09/03 10:24:04;;;;;;;4.57;2.50;;;24.20;99.90;;;;;;5080489;28;38851;-78
2022/09/03 10:26:31;;;;;;;3.60;2.25;;;24.40;99.90;;;;;;5074850;28;48731;-79
2022/09/03 10:29:07;;;;;;;5.60;2.20;;;24.80;99.90;;;;;;5056237;28;38201;-78
2022/09/03 10:31:36;;;;;;;5.15;2.05;;;24.90;99.90;;;;;;5073528;28;48993;-77
2022/09/03 10:34:07;;;;;;;4.32;2.13;;;25.30;99.90;;;;;;5067260;28;37681;-78
2022/09/03 10:36:43;;;;;;;5.70;2.10;;;25.50;99.90;;;;;;5065995;28;37193;-77
2022/09/03 10:39:50;;;;;;;3.67;2.33;;;25.60;99.90;;;;;;5060328;28;37843;-79
2022/09/03 10:42:34;;;;;;;5.20;2.38;;;25.90;99.90;;;;;;4984377;28;37569;-78
2022/09/03 10:45:15;;;;;;;4.47;2.38;;;25.90;99.90;;;;;;4978898;28;39458;-78
2022/09/03 10:48:18;;;;;;;4.07;2.40;;;25.70;99.90;;;;;;5028686;28;47274;-78
2022/09/03 10:51:15;;;;;;;4.82;2.25;;;25.20;99.90;;;;;;5054644;28;47104;-78
2022/09/03 10:54:04;;;;;;;2.65;1.98;;;25.00;99.90;;;;;;5055091;28;47026;-78
2022/09/03 10:56:58;;;;;;;4.05;2.00;;;25.20;99.90;;;;;;5048934;28;47174;-78
2022/09/03 10:59:46;;;;;;;2.65;1.70;;;25.40;99.90;;;;;;5050690;28;37860;-78
2022/09/03 11:02:50;;;;;;;3.40;1.75;;;26.00;99.90;;;;;;5051441;28;38882;-78
2022/09/03 11:05:37;;;;;;;2.72;2.00;;;25.70;99.90;;;;;;5032899;28;37177;-77
2022/09/03 11:08:22;;;;;;;2.92;1.70;;;25.60;99.90;;;;;;5046960;28;38724;-77
2022/09/03 11:10:56;;;;;;;2.05;1.65;;;25.60;99.90;;;;;;5029555;28;38642;-76
2022/09/03 11:13:44;;;;;;;2.47;1.63;;;25.60;99.90;;;;;;5060140;28;37698;-76
2022/09/03 11:16:32;;;;;;;2.85;1.55;;;26.20;99.90;;;;;;5029452;28;37384;-77
2022/09/03 11:19:05;;;;;;;5.30;1.70;;;26.10;99.90;;;;;;5033024;28;38797;-76
2022/09/03 11:21:36;;;;;;;2.75;2.00;;;26.40;99.90;;;;;;5061709;28;47282;-77
2022/09/03 11:24:19;;;;;;;2.13;1.92;;;26.10;99.90;;;;;;5059681;28;37764;-77
2022/09/03 11:27:17;;;;;;;5.55;1.60;;;26.30;99.90;;;;;;5072057;28;36702;-77
2022/09/03 11:29:54;;;;;;;3.35;1.65;;;27.00;99.90;;;;;;5032863;28;47162;-77
2022/09/03 11:32:39;;;;;;;2.47;1.50;;;27.10;99.90;;;;;;5055386;28;39186;-76
2022/09/03 11:35:24;;;;;;;2.55;1.52;;;26.60;99.90;;;;;;5074619;28;39978;-77
2022/09/03 11:37:56;;;;;;;3.72;1.23;;;26.70;99.90;;;;;;5064916;28;38077;-77
2022/09/03 11:40:35;;;;;;;3.10;1.20;;;27.00;99.90;;;;;;5060355;28;43995;-77
2022/09/03 11:43:33;;;;;;;3.25;1.50;;;26.80;99.90;;;;;;5061915;28;38151;-78
2022/09/03 11:46:10;;;;;;;2.47;1.40;;;26.10;99.90;;;;;;5062400;28;38115;-77
2022/09/03 11:48:43;;;;;;;3.17;1.20;;;26.50;99.90;;;;;;5054055;28;47149;-77
2022/09/03 11:51:24;;;;;;;2.83;1.45;;;27.20;99.90;;;;;;5052527;28;40620;-77
2022/09/03 11:53:55;;;;;;;2.87;1.50;;;27.20;99.90;;;;;;5040345;28;38994;-77
2022/09/03 11:56:21;;;;;;;2.78;1.35;;;26.70;99.90;;;;;;5070302;28;37900;-77
2022/09/03 11:58:58;;;;;;;3.97;1.52;;;26.90;99.90;;;;;;5072932;28;37384;-76
2022/09/03 12:01:27;;;;;;;2.83;1.20;;;27.40;99.90;;;;;;5040350;28;39515;-77
2022/09/03 12:04:02;;;;;;;3.13;1.50;;;27.40;99.90;;;;;;5060268;28;39174;-77
2022/09/03 12:07:05;;;;;;;3.38;1.33;;;27.80;99.90;;;;;;5054494;28;48817;-77
2022/09/03 12:10:17;;;;;;;5.88;1.65;;;27.60;99.90;;;;;;5068855;28;47205;-76
2022/09/03 12:13:04;;;;;;;2.75;1.42;;;27.60;99.90;;;;;;4951338;28;47092;-76
2022/09/03 12:15:50;;;;;;;6.90;1.80;;;27.60;99.90;;;;;;4983076;28;48512;-76
2022/09/03 12:18:28;;;;;;;3.65;1.45;;;27.50;99.90;;;;;;5046996;28;38403;-78
2022/09/03 12:20:54;;;;;;;7.00;1.67;;;27.30;99.90;;;;;;5065200;28;37378;-76
2022/09/03 12:23:45;;;;;;;5.38;1.50;;;27.40;99.90;;;;;;5076072;28;40694;-77
2022/09/03 12:26:14;;;;;;;4.00;1.30;;;27.50;99.90;;;;;;5081465;28;37608;-77
2022/09/03 12:28:42;;;;;;;2.90;1.48;;;27.30;99.90;;;;;;5086202;28;38056;-77
2022/09/03 12:31:37;;;;;;;4.07;1.88;;;27.60;99.90;;;;;;5082856;28;37973;-77
2022/09/03 12:34:13;;;;;;;5.03;1.73;;;27.60;99.90;;;;;;5069657;28;40493;-77
2022/09/03 12:36:43;;;;;;;3.22;1.30;;;27.60;99.90;;;;;;5081654;28;38428;-77
2022/09/03 12:39:16;;;;;;;6.20;1.63;;;27.80;99.90;;;;;;5060822;28;38944;-76
2022/09/03 12:42:02;;;;;;;4.55;1.88;;;27.60;99.90;;;;;;5081981;28;36997;-77
2022/09/03 12:44:40;;;;;;;2.67;1.75;;;27.60;99.90;;;;;;5060805;28;48169;-78
2022/09/03 12:47:16;;;;;;;1.95;1.30;;;27.40;99.90;;;;;;5060375;28;38939;-76
2022/09/03 12:49:44;;;;;;;4.45;1.60;;;27.50;99.90;;;;;;5057409;28;37924;-77
2022/09/03 12:52:37;;;;;;;6.10;1.70;;;27.90;99.90;;;;;;5038095;28;37776;-77
2022/09/03 12:55:28;;;;;;;2.63;1.60;;;28.20;99.90;;;;;;5038856;28;40635;-77
2022/09/03 12:58:01;;;;;;;4.63;1.65;;;28.10;99.90;;;;;;5036141;28;39362;-82
2022/09/03 13:00:29;;;;;;;4.65;1.33;;;27.60;99.90;;;;;;5056628;28;47806;-77
2022/09/03 13:03:10;;;;;;;3.28;1.50;;;27.60;99.90;;;;;;5043850;28;37720;-77
2022/09/03 13:06:02;;;;;;;2.97;1.67;;;27.40;99.90;;;;;;5057565;28;48044;-77
2022/09/03 13:08:30;;;;;;;;;;;27.20;99.90;;;;;;5079165;28;48662;-77
2022/09/03 13:11:01;;;;;;;3.42;1.63;;;27.70;99.90;;;;;;5058543;28;37438;-78
2022/09/03 13:13:30;;;;;;;3.85;1.15;;;27.70;99.90;;;;;;5075518;28;47183;-77
2022/09/03 13:16:08;;;;;;;1.73;1.17;;;27.40;99.90;;;;;;5077103;28;38316;-77
2022/09/03 13:19:17;;;;;;;5.20;1.30;;;27.80;99.90;;;;;;5062709;28;46994;-77
2022/09/03 13:21:52;;;;;;;4.53;1.50;;;28.20;99.90;;;;;;5054306;28;47755;-78
2022/09/03 13:24:37;;;;;;;4.90;1.60;;;27.80;99.90;;;;;;5071647;28;37411;-78
2022/09/03 13:27:22;;;;;;;2.70;1.48;;;27.60;99.90;;;;;;5080563;28;38521;-77